Time;durP1;ratioP1;P1;durP2;ratioP2;P2;SDS_P1;SDS_P2;PMS_P1;PMS_P2;Temp;Humidity;BMP_temperature;BMP_pressure;BME280_temperature;BME280_humidity;BME280_pressure;Samples;Min_cycle;Max_cycle;Signal;HPM_P1;HPM_P2
2022/03/20 00:02:23;;;;;;;7.70;3.35;;;;;;;18.59;41.35;103604.47;5025839;28;20136;-39
2022/03/20 00:04:50;;;;;;;6.00;3.25;;;;;;;18.57;41.36;103607.22;5024164;28;20062;-39
2022/03/20 00:07:16;;;;;;;6.00;3.00;;;;;;;18.56;41.87;103610.88;5026637;28;20132;-39
2022/03/20 00:09:44;;;;;;;3.90;2.50;;;;;;;18.54;41.91;103607.44;5024634;28;20447;-39
2022/03/20 00:12:10;;;;;;;4.63;2.97;;;;;;;18.54;41.81;103598.53;5025604;28;20045;-39
2022/03/20 00:14:37;;;;;;;5.07;3.00;;;;;;;18.54;41.51;103599.38;5023748;28;20485;-39
2022/03/20 00:17:04;;;;;;;4.57;2.80;;;;;;;18.53;42.21;103594.06;5028022;28;20128;-40
2022/03/20 00:19:31;;;;;;;7.25;2.92;;;;;;;18.51;41.67;103588.81;5026301;28;20053;-40
2022/03/20 00:21:58;;;;;;;4.20;3.05;;;;;;;18.49;41.42;103579.97;5026650;28;20120;-39
2022/03/20 00:24:25;;;;;;;5.05;2.85;;;;;;;18.48;41.76;103580.91;5023540;28;20041;-40
2022/03/20 00:26:57;;;;;;;4.60;2.60;;;;;;;18.49;41.84;103586.22;5023867;28;20033;-39
2022/03/20 00:29:27;;;;;;;5.32;2.78;;;;;;;18.46;41.68;103583.72;5024592;28;20108;-40
2022/03/20 00:31:54;;;;;;;3.40;2.20;;;;;;;18.47;41.49;103579.19;5026453;28;20145;-40
2022/03/20 00:34:21;;;;;;;3.67;2.58;;;;;;;18.46;41.69;103582.84;5025337;28;20081;-39
2022/03/20 00:36:47;;;;;;;4.63;2.80;;;;;;;18.45;42.05;103575.72;5024730;28;20042;-38
2022/03/20 00:39:14;;;;;;;4.13;2.30;;;;;;;18.44;41.83;103574.00;5023346;28;20056;-39
2022/03/20 00:41:40;;;;;;;5.38;2.78;;;;;;;18.43;41.92;103577.66;5023064;28;20077;-39
2022/03/20 00:44:07;;;;;;;4.32;2.25;;;;;;;18.41;41.46;103571.47;5025476;28;20096;-39
2022/03/20 00:46:33;;;;;;;4.30;2.55;;;;;;;18.41;41.85;103569.69;5026429;28;20049;-38
2022/03/20 00:49:00;;;;;;;4.72;2.72;;;;;;;18.38;42.29;103561.81;5024560;28;20068;-39
2022/03/20 00:51:27;;;;;;;5.05;2.53;;;;;;;18.39;41.93;103558.16;5022559;28;20049;-39
2022/03/20 00:53:53;;;;;;;4.82;2.63;;;;;;;18.38;42.06;103563.63;5026875;28;20132;-39
2022/03/20 00:56:20;;;;;;;4.72;2.40;;;;;;;18.36;41.66;103557.47;5025862;28;20131;-39
2022/03/20 00:58:47;;;;;;;4.40;2.28;;;;;;;18.36;41.56;103555.66;5021501;28;20042;-39
2022/03/20 01:01:14;;;;;;;3.63;2.30;;;;;;;18.34;41.91;103551.34;5023225;28;20033;-39
2022/03/20 01:03:41;;;;;;;3.45;2.15;;;;;;;18.33;41.98;103549.59;5024002;28;20329;-39
2022/03/20 01:06:09;;;;;;;3.95;2.20;;;;;;;18.32;41.91;103531.75;5027497;28;20091;-39
2022/03/20 01:08:37;;;;;;;4.93;2.58;;;;;;;18.31;41.63;103541.63;5019376;28;20048;-40
2022/03/20 01:11:07;;;;;;;4.40;2.22;;;;;;;18.29;41.90;103530.13;5023454;28;20136;-39
2022/03/20 01:13:35;;;;;;;3.25;2.13;;;;;;;18.28;41.87;103533.75;5024311;28;20068;-40
2022/03/20 01:16:02;;;;;;;4.47;2.80;;;;;;;18.28;41.83;103525.69;5024536;28;20049;-40
2022/03/20 01:18:29;;;;;;;4.00;2.13;;;;;;;18.28;41.84;103522.16;5018995;28;20329;-39
2022/03/20 01:20:56;;;;;;;3.80;2.42;;;;;;;18.27;41.83;103517.75;5021375;28;20060;-39
2022/03/20 01:23:22;;;;;;;4.25;2.13;;;;;;;18.24;41.81;103518.78;5021722;28;20651;-39
2022/03/20 01:25:50;;;;;;;4.35;2.38;;;;;;;18.23;42.03;103511.69;5024513;28;20057;-39
2022/03/20 01:28:17;;;;;;;3.53;2.10;;;;;;;18.21;41.83;103506.41;5022832;28;20041;-39
2022/03/20 01:30:45;;;;;;;4.40;2.20;;;;;;;18.21;41.73;103510.91;5025994;28;20150;-39
2022/03/20 01:33:12;;;;;;;4.25;2.38;;;;;;;18.20;42.13;103509.19;5022373;28;20136;-39
2022/03/20 01:35:39;;;;;;;3.88;2.42;;;;;;;18.18;41.56;103503.03;5026927;28;20084;-39
2022/03/20 01:38:06;;;;;;;3.90;2.42;;;;;;;18.17;41.82;103496.81;5025722;28;20053;-39
2022/03/20 01:40:34;;;;;;;4.38;2.75;;;;;;;18.16;41.53;103489.69;5023694;28;20065;-39
2022/03/20 01:43:01;;;;;;;4.30;1.98;;;;;;;18.15;42.00;103487.97;5023563;28;20425;-38
2022/03/20 01:45:28;;;;;;;2.80;2.10;;;;;;;18.15;41.88;103492.47;5025943;28;20077;-39
2022/03/20 01:47:55;;;;;;;3.08;2.10;;;;;;;18.14;42.03;103483.56;5026716;28;20091;-39
2022/03/20 01:50:27;;;;;;;2.60;2.15;;;;;;;18.12;41.50;103482.78;5026599;28;20470;-39
2022/03/20 01:52:56;;;;;;;4.93;2.63;;;;;;;18.14;41.93;103471.97;5026891;28;20148;-38
2022/03/20 01:55:24;;;;;;;3.80;2.05;;;;;;;18.12;42.01;103471.19;5028514;28;20180;-39
2022/03/20 01:57:51;;;;;;;3.60;2.45;;;;;;;18.09;41.94;103465.97;5023742;28;20159;-40
2022/03/20 02:00:19;;;;;;;4.15;2.55;;;;;;;18.08;41.84;103459.75;5024662;28;20041;-40
2022/03/20 02:02:46;;;;;;;3.35;2.03;;;;;;;18.08;41.84;103459.75;5023598;28;20046;-39
2022/03/20 02:05:13;;;;;;;4.30;2.55;;;;;;;18.07;41.80;103452.66;5027185;28;20056;-39
2022/03/20 02:07:41;;;;;;;3.25;2.53;;;;;;;18.04;42.08;103450.16;5025831;28;20137;-39
2022/03/20 02:10:08;;;;;;;4.88;2.40;;;;;;;18.05;41.57;103442.97;5026130;28;20059;-39
2022/03/20 02:12:37;;;;;;;4.35;2.45;;;;;;;18.04;41.48;103442.09;5022813;28;20045;-39
2022/03/20 02:15:05;;;;;;;3.92;2.20;;;;;;;18.03;41.90;103436.84;5024023;28;20427;-40
2022/03/20 02:17:32;;;;;;;5.10;2.08;;;;;;;18.03;42.06;103435.00;5024075;28;20041;-39
2022/03/20 02:20:03;;;;;;;4.07;2.15;;;;;;;18.02;42.11;103432.44;5025173;28;20089;-39
2022/03/20 02:22:30;;;;;;;3.38;2.15;;;;;;;17.98;41.87;103421.88;5028673;28;20057;-39
2022/03/20 02:24:57;;;;;;;3.95;2.30;;;;;;;17.99;41.94;103422.72;5023920;28;20045;-38
2022/03/20 02:27:27;;;;;;;3.05;1.85;;;;;;;17.96;41.85;103418.41;5022648;28;20076;-39
2022/03/20 02:29:59;;;;;;;2.65;1.92;;;;;;;17.94;41.78;103404.22;5023566;28;20037;-39
2022/03/20 02:32:31;;;;;;;3.00;1.90;;;;;;;17.94;42.00;103403.38;5025289;28;20405;-39
2022/03/20 02:35:02;;;;;;;3.78;2.20;;;;;;;17.94;42.01;103400.69;5024809;28;20071;-39
2022/03/20 02:37:29;;;;;;;5.60;2.40;;;;;;;17.93;42.30;103393.56;5021552;28;20045;-39
2022/03/20 02:40:00;;;;;;;2.90;1.92;;;;;;;17.90;42.22;103378.53;5024096;28;20045;-38
2022/03/20 02:42:28;;;;;;;3.53;2.10;;;;;;;17.89;41.82;103373.22;5025651;28;20084;-39
2022/03/20 02:45:06;;;;;;;4.80;2.13;;;;;;;17.88;41.69;103372.38;5024429;28;20125;-39
2022/03/20 02:47:41;;;;;;;2.67;1.95;;;;;;;17.87;41.78;103376.03;5020995;28;20069;-38
2022/03/20 02:50:11;;;;;;;3.85;2.25;;;;;;;17.87;41.89;103369.78;5025662;28;20099;-38
2022/03/20 02:52:54;;;;;;;4.53;2.15;;;;;;;17.86;41.51;103365.41;5025803;28;20052;-38
2022/03/20 02:55:25;;;;;;;3.05;1.95;;;;;;;17.84;42.16;103370.81;5024155;28;20077;-39
2022/03/20 02:57:53;;;;;;;3.88;1.92;;;;;;;17.83;42.00;103365.56;5024723;28;20356;-39
2022/03/20 03:00:22;;;;;;;7.22;2.17;;;;;;;17.82;42.08;103367.38;5020098;28;20073;-39
2022/03/20 03:02:51;;;;;;;4.40;2.30;;;;;;;17.80;42.24;103363.91;5024658;28;20053;-39
2022/03/20 03:05:20;;;;;;;3.80;2.33;;;;;;;17.80;41.75;103363.06;5020262;28;20333;-39
2022/03/20 03:13:22;;;;;;;3.85;2.00;;;;;;;17.77;41.63;103356.06;5023211;28;20076;-39
2022/03/20 03:15:52;;;;;;;4.85;2.38;;;;;;;17.74;42.35;103354.44;5022512;28;20045;-39
2022/03/20 03:18:20;;;;;;;3.75;2.10;;;;;;;17.74;42.27;103358.91;5022501;28;20050;-38
2022/03/20 03:20:47;;;;;;;5.57;2.35;;;;;;;17.73;42.03;103355.34;5023697;28;20132;-39
2022/03/20 03:23:14;;;;;;;2.60;1.80;;;;;;;17.74;42.36;103345.50;5020234;28;20049;-39
2022/03/20 03:25:41;;;;;;;3.67;2.10;;;;;;;17.71;42.16;103343.84;5024007;28;20642;-39
2022/03/20 03:28:10;;;;;;;4.40;2.03;;;;;;;17.72;42.24;103344.69;5024215;28;20405;-39
2022/03/20 03:30:40;;;;;;;2.65;2.05;;;;;;;17.70;42.32;103336.75;5019771;28;20081;-39
2022/03/20 03:33:07;;;;;;;3.78;2.17;;;;;;;17.68;42.29;103338.66;5028046;28;20045;-39
2022/03/20 03:35:42;;;;;;;3.17;1.73;;;;;;;17.68;42.63;103325.25;5024512;28;20124;-39
2022/03/20 03:38:12;;;;;;;2.40;1.65;;;;;;;17.68;42.46;103311.81;5024761;28;20508;-39
2022/03/20 03:40:40;;;;;;;3.15;1.77;;;;;;;17.69;42.17;103305.53;5024818;28;20051;-38
2022/03/20 03:43:06;;;;;;;3.28;1.80;;;;;;;17.69;42.24;103307.34;5025284;28;20129;-39
2022/03/20 03:45:39;;;;;;;3.03;2.05;;;;;;;17.67;42.31;103311.94;5022145;28;20092;-39
2022/03/20 03:48:06;;;;;;;4.43;2.03;;;;;;;17.66;41.91;103311.06;5022270;28;20341;-39
2022/03/20 03:50:35;;;;;;;3.40;2.05;;;;;;;17.66;42.28;103311.06;5023364;28;20377;-39
2022/03/20 03:53:03;;;;;;;3.67;2.22;;;;;;;17.66;42.49;103303.03;5021580;28;20072;-39
2022/03/20 03:55:31;;;;;;;2.70;1.67;;;;;;;17.65;42.24;103303.13;5022196;28;20091;-39
2022/03/20 03:57:59;;;;;;;3.30;1.80;;;;;;;17.63;42.49;103297.84;5023637;28;20120;-39
2022/03/20 04:00:27;;;;;;;3.25;2.10;;;;;;;17.64;42.66;103299.56;5022311;28;20079;-38
2022/03/20 04:02:54;;;;;;;3.75;1.65;;;;;;;17.63;42.30;103294.28;5023663;28;20053;-39
2022/03/20 04:05:21;;;;;;;4.43;2.25;;;;;;;17.61;42.64;103281.00;5024977;28;20056;-39
2022/03/20 04:07:47;;;;;;;4.00;1.73;;;;;;;17.62;42.60;103284.53;5021807;28;20037;-38
2022/03/20 04:10:16;;;;;;;2.63;1.77;;;;;;;17.60;42.70;103287.28;5019086;28;20195;-39
2022/03/20 04:12:44;;;;;;;2.90;1.92;;;;;;;17.59;41.97;103277.50;5022374;28;20074;-39
2022/03/20 04:15:12;;;;;;;3.53;2.28;;;;;;;17.58;42.64;103289.22;5020633;28;20321;-39
2022/03/20 04:17:39;;;;;;;4.43;2.30;;;;;;;17.59;42.27;103282.03;5019346;28;20045;-38
2022/03/20 04:20:07;;;;;;;3.30;1.70;;;;;;;17.58;42.92;103278.47;5022840;28;20053;-39
2022/03/20 04:22:36;;;;;;;3.75;1.95;;;;;;;17.58;42.94;103274.94;5021887;28;20084;-39
2022/03/20 04:25:04;;;;;;;3.50;2.00;;;;;;;17.56;42.28;103269.66;5021746;28;20675;-39
2022/03/20 04:27:32;;;;;;;4.82;2.78;;;;;;;17.56;42.28;103269.66;5026027;28;20064;-39
2022/03/20 04:29:58;;;;;;;3.63;2.22;;;;;;;17.55;42.77;103264.38;5024658;28;20053;-39
2022/03/20 04:32:25;;;;;;;3.03;2.13;;;;;;;17.56;42.88;103263.41;5027279;28;20058;-39
2022/03/20 04:34:55;;;;;;;3.67;2.20;;;;;;;17.53;42.61;103259.13;5026186;28;20056;-40
2022/03/20 04:37:21;;;;;;;5.32;2.70;;;;;;;17.52;42.88;103254.69;5023590;28;20041;-40
2022/03/20 04:39:48;;;;;;;2.58;1.92;;;;;;;17.52;42.36;103247.50;5025766;28;20128;-40
2022/03/20 04:42:15;;;;;;;4.50;2.28;;;;;;;17.52;42.84;103246.66;5022977;28;20120;-39
2022/03/20 04:44:43;;;;;;;3.67;2.17;;;;;;;17.51;42.47;103239.56;5023852;28;20049;-39
2022/03/20 04:58:31;;;;;;;3.72;2.10;;;;;;;17.48;42.56;103231.69;5024311;28;20136;-39
2022/03/20 05:00:58;;;;;;;5.18;2.47;;;;;;;17.46;42.53;103209.50;5023939;28;20143;-39
2022/03/20 05:03:25;;;;;;;3.75;2.28;;;;;;;17.43;42.55;103213.22;5023122;28;20053;-39
2022/03/20 05:05:52;;;;;;;3.25;1.92;;;;;;;17.44;43.11;103198.84;5024138;28;20041;-40
2022/03/20 05:08:18;;;;;;;4.30;2.58;;;;;;;17.45;42.35;103194.38;5026119;28;20129;-39
2022/03/20 05:13:30;;;;;;;4.40;2.30;;;;;;;17.40;42.30;103178.53;5023551;28;20429;-39
2022/03/20 05:15:57;;;;;;;3.67;2.33;;;;;;;17.41;42.43;103176.75;5023500;28;20137;-39
2022/03/20 05:18:24;;;;;;;3.90;2.75;;;;;;;17.40;43.29;103175.00;5023654;28;20038;-39
2022/03/20 05:20:52;;;;;;;4.65;2.70;;;;;;;17.41;42.91;103168.72;5025985;28;20045;-39
2022/03/20 05:23:20;;;;;;;3.92;2.17;;;;;;;17.41;43.07;103166.03;5024994;28;20061;-39
2022/03/20 05:25:47;;;;;;;4.10;2.53;;;;;;;17.40;43.12;103173.19;5027252;28;20049;-39
2022/03/20 05:28:16;;;;;;;3.67;2.58;;;;;;;17.39;42.90;103167.91;5024131;28;20056;-38
2022/03/20 05:30:44;;;;;;;5.88;2.08;;;;;;;17.39;42.55;103167.91;5020687;28;20084;-39
2022/03/20 05:33:12;;;;;;;3.58;2.55;;;;;;;17.37;42.63;103173.38;5018180;28;20080;-38
2022/03/20 05:35:40;;;;;;;5.03;2.65;;;;;;;17.37;42.67;103172.53;5024095;28;20145;-39
2022/03/20 05:38:10;;;;;;;5.57;2.58;;;;;;;17.35;42.92;103167.25;5022577;28;20523;-39
2022/03/20 05:40:38;;;;;;;5.45;2.75;;;;;;;17.35;43.14;103169.91;5025949;28;20411;-38
2022/03/20 05:43:08;;;;;;;4.47;2.55;;;;;;;17.34;43.28;103160.16;5018553;28;20041;-38
2022/03/20 05:45:39;;;;;;;3.88;2.60;;;;;;;17.34;43.14;103156.63;5025861;28;20441;-38
2022/03/20 05:48:08;;;;;;;4.07;2.75;;;;;;;17.34;43.14;103152.13;5021056;28;20053;-38
2022/03/20 05:50:35;;;;;;;4.10;2.35;;;;;;;17.34;42.71;103146.75;5021312;28;20144;-39
2022/03/20 05:53:03;;;;;;;4.68;2.90;;;;;;;17.35;42.54;103147.63;5021676;28;20041;-39
2022/03/20 05:58:15;;;;;;;10.00;2.90;;;;;;;17.32;43.18;103137.06;5021069;28;20324;-37
2022/03/20 06:00:42;;;;;;;4.38;2.78;;;;;;;17.33;43.03;103133.47;5020132;28;20068;-39
2022/03/20 06:03:10;;;;;;;7.97;3.20;;;;;;;17.33;42.74;103134.31;5017477;28;20147;-39
2022/03/20 06:05:38;;;;;;;6.03;3.17;;;;;;;17.33;41.99;103136.13;5019768;28;21515;-39
2022/03/20 06:08:06;;;;;;;4.07;2.88;;;;;;;17.35;42.59;103129.72;5019175;28;20054;-39
2022/03/20 06:10:33;;;;;;;4.38;3.13;;;;;;;17.35;42.81;103134.22;5021391;28;20148;-38
2022/03/20 06:13:02;;;;;;;6.45;2.88;;;;;;;17.34;42.26;103124.44;5022878;28;20050;-39
2022/03/20 06:15:29;;;;;;;6.82;3.17;;;;;;;17.34;42.39;103132.50;5022254;28;20041;-38
2022/03/20 06:17:55;;;;;;;10.55;3.85;;;;;;;17.33;42.30;103125.41;5023742;28;20417;-38
2022/03/20 06:20:22;;;;;;;10.50;3.40;;;;;;;17.30;42.74;103121.09;5022556;28;20680;-39
2022/03/20 06:22:49;;;;;;;4.75;3.40;;;;;;;17.30;42.14;103123.78;5023232;28;20120;-38
2022/03/20 06:25:16;;;;;;;7.47;3.50;;;;;;;17.31;42.86;103121.97;5025858;28;20084;-38
2022/03/20 06:27:48;;;;;;;7.63;4.10;;;;;;;17.31;42.72;103121.97;5022508;28;20101;-38
2022/03/20 06:30:16;;;;;;;5.47;3.60;;;;;;;17.31;42.61;103122.81;5025766;28;20477;-38
2022/03/20 06:32:44;;;;;;;5.47;3.70;;;;;;;17.31;42.76;103130.00;5024356;28;20451;-38
2022/03/20 06:35:11;;;;;;;6.32;4.10;;;;;;;17.28;42.34;103120.31;5023317;28;20049;-39
2022/03/20 06:37:43;;;;;;;5.35;3.58;;;;;;;17.27;42.42;103122.13;5027265;28;20055;-39
2022/03/20 06:40:11;;;;;;;5.78;3.97;;;;;;;17.26;42.02;103127.59;5023600;28;20136;-39
2022/03/20 06:42:38;;;;;;;9.48;4.40;;;;;;;17.25;42.81;103128.56;5022856;28;20087;-39
2022/03/20 06:45:11;;;;;;;8.30;4.45;;;;;;;17.26;42.74;103135.63;5025864;28;20484;-38
2022/03/20 06:47:39;;;;;;;7.47;4.63;;;;;;;17.25;42.03;103128.56;5025231;28;20141;-38
2022/03/20 06:50:08;;;;;;;7.38;4.47;;;;;;;17.25;41.87;103131.25;5022571;28;20488;-38
2022/03/20 06:52:35;;;;;;;8.27;4.38;;;;;;;17.24;42.57;103130.34;5025997;28;20042;-38
2022/03/20 06:55:03;;;;;;;7.78;4.40;;;;;;;17.25;42.43;103124.06;5026925;28;20768;-39
2022/03/20 06:57:30;;;;;;;8.23;4.63;;;;;;;17.26;42.42;103111.53;5025636;28;20049;-39
2022/03/20 06:59:59;;;;;;;7.00;4.90;;;;;;;17.26;42.45;103112.38;5025288;28;20046;-39
2022/03/20 07:02:27;;;;;;;8.52;4.63;;;;;;;17.27;42.14;103105.19;5023768;28;20129;-39
2022/03/20 07:04:54;;;;;;;8.55;4.78;;;;;;;17.26;42.59;103096.28;5026660;28;20448;-39
2022/03/20 07:07:25;;;;;;;11.45;4.72;;;;;;;17.28;42.58;103097.03;5022385;28;20145;-39
2022/03/20 07:09:52;;;;;;;7.88;4.80;;;;;;;17.28;41.97;103093.50;5021894;28;20044;-39
2022/03/20 07:12:19;;;;;;;9.23;4.97;;;;;;;17.31;42.26;103079.06;5025654;28;20052;-39
2022/03/20 07:14:46;;;;;;;8.38;5.00;;;;;;;17.35;42.44;103072.56;5027565;28;20195;-39
2022/03/20 07:17:15;;;;;;;7.75;5.45;;;;;;;17.38;42.35;103065.19;5020125;28;20057;-39
2022/03/20 07:19:43;;;;;;;8.23;5.18;;;;;;;17.41;42.43;103048.94;5026274;28;20042;-39
2022/03/20 07:22:12;;;;;;;9.00;5.32;;;;;;;17.45;41.79;103054.97;5024643;28;20070;-39
2022/03/20 07:24:41;;;;;;;9.88;5.80;;;;;;;17.47;41.80;103053.03;5023757;28;20128;-39
2022/03/20 07:29:55;;;;;;;10.23;5.90;;;;;;;17.50;42.21;103051.03;5023563;28;20050;-39
2022/03/20 07:32:21;;;;;;;9.75;5.22;;;;;;;17.52;41.64;103037.50;5024345;28;20053;-39
2022/03/20 07:34:48;;;;;;;9.95;5.85;;;;;;;17.54;41.54;103032.94;5023474;28;20124;-39
2022/03/20 07:37:16;;;;;;;9.77;5.97;;;;;;;17.56;41.91;103035.50;5026149;28;20087;-40
2022/03/20 07:39:46;;;;;;;14.43;7.70;;;;;;;17.58;42.09;103038.97;5026370;28;20207;-39
2022/03/20 07:42:13;;;;;;;11.00;6.95;;;;;;;17.60;41.83;103026.31;5021491;28;20065;-39
2022/03/20 07:44:40;;;;;;;12.20;7.22;;;;;;;17.61;42.00;103033.38;5023500;28;20041;-40
2022/03/20 07:47:08;;;;;;;11.15;6.82;;;;;;;17.63;41.96;103028.78;5022053;28;20053;-38
2022/03/20 07:49:39;;;;;;;19.23;8.23;;;;;;;17.64;41.78;103026.00;5022729;28;20041;-39
2022/03/20 07:52:06;;;;;;;18.30;7.65;;;;;;;17.66;41.84;103023.25;5022742;28;20447;-39
2022/03/20 07:54:36;;;;;;;19.67;7.93;;;;;;;17.67;41.85;103023.13;5022914;28;20134;-39
2022/03/20 07:57:03;;;;;;;17.15;8.63;;;;;;;17.68;42.02;103018.63;5024910;28;20060;-39
2022/03/20 07:59:30;;;;;;;17.60;8.02;;;;;;;17.68;41.53;103030.22;5023711;28;20466;-39
2022/03/20 08:01:57;;;;;;;22.50;8.88;;;;;;;17.70;41.68;103022.94;5017381;28;20073;-39
2022/03/20 08:04:24;;;;;;;23.83;8.90;;;;;;;17.71;41.77;103027.34;5022118;28;20072;-39
2022/03/20 08:06:51;;;;;;;19.67;8.07;;;;;;;17.71;41.56;103031.84;5025756;28;20051;-39
2022/03/20 08:09:17;;;;;;;23.30;8.60;;;;;;;17.69;41.84;103023.91;5022828;28;20072;-39
2022/03/20 08:11:45;;;;;;;18.55;8.90;;;;;;;17.68;41.90;103014.13;5022860;28;20234;-39
2022/03/20 08:14:11;;;;;;;15.05;8.68;;;;;;;17.67;41.57;103003.50;5026952;28;20352;-39
2022/03/20 08:16:39;;;;;;;19.67;8.27;;;;;;;17.67;42.47;103003.50;5024053;28;20068;-39
2022/03/20 08:19:08;;;;;;;25.20;9.35;;;;;;;17.69;42.64;102997.09;5023243;28;20176;-39
2022/03/20 08:21:35;;;;;;;17.02;9.45;;;;;;;17.73;42.12;102998.63;5023349;28;20065;-39
2022/03/20 08:24:03;;;;;;;22.80;9.93;;;;;;;17.78;42.35;102989.44;5023953;28;20091;-39
2022/03/20 08:26:31;;;;;;;18.85;9.82;;;;;;;17.80;42.10;102982.16;5021355;28;20141;-39
2022/03/20 08:28:59;;;;;;;22.80;10.00;;;;;;;17.81;41.82;102979.38;5024959;28;20136;-39
2022/03/20 08:31:27;;;;;;;36.65;10.05;;;;;;;17.81;41.83;102979.38;5022612;28;20098;-39
2022/03/20 08:33:57;;;;;;;23.30;8.77;;;;;;;17.85;42.07;102977.34;5022144;28;20049;-40
2022/03/20 08:36:24;;;;;;;22.75;10.57;;;;;;;17.87;41.80;102965.56;5024327;28;20049;-38
2022/03/20 08:38:51;;;;;;;21.50;10.10;;;;;;;17.91;41.88;102968.91;5024969;28;20099;-40
2022/03/20 08:41:18;;;;;;;22.40;9.75;;;;;;;17.94;41.57;102968.69;5022740;28;20033;-39
2022/03/20 08:43:45;;;;;;;18.20;9.73;;;;;;;17.96;41.64;102966.75;5021992;28;20041;-40
2022/03/20 08:46:12;;;;;;;20.13;9.05;;;;;;;17.98;41.35;102973.75;5021649;28;20064;-40
2022/03/20 08:48:39;;;;;;;21.73;9.20;;;;;;;18.01;41.39;102961.97;5024106;28;20048;-39
2022/03/20 08:51:05;;;;;;;23.13;9.68;;;;;;;18.02;41.73;102957.47;5025186;28;20144;-39
2022/03/20 08:53:33;;;;;;;19.17;9.23;;;;;;;18.03;41.17;102962.72;5025819;28;20374;-39
2022/03/20 08:56:00;;;;;;;20.25;9.60;;;;;;;18.05;41.25;102959.91;5027829;28;20091;-40
2022/03/20 08:58:26;;;;;;;19.58;9.85;;;;;;;18.05;40.84;102954.56;5025598;28;20140;-40
2022/03/20 09:00:53;;;;;;;21.83;10.45;;;;;;;18.05;40.80;102962.59;5026457;28;20048;-40
2022/03/20 09:03:20;;;;;;;22.02;9.98;;;;;;;18.05;40.87;102952.75;5020901;28;20455;-39
2022/03/20 09:05:46;;;;;;;26.15;10.82;;;;;;;18.04;40.90;102951.00;5020637;28;20080;-40
2022/03/20 09:08:13;;;;;;;20.80;10.48;;;;;;;18.06;41.43;102941.06;5025502;28;20145;-40
2022/03/20 09:10:41;;;;;;;17.20;9.57;;;;;;;18.08;41.56;102943.63;5024705;28;20340;-40
2022/03/20 09:13:07;;;;;;;21.35;11.43;;;;;;;18.08;40.97;102940.94;5022964;28;20075;-40
2022/03/20 09:15:34;;;;;;;21.77;10.13;;;;;;;18.07;41.10;102921.28;5026637;28;20643;-40
2022/03/20 09:20:46;;;;;;;19.25;10.32;;;;;;;18.03;41.01;102911.72;5022008;28;20145;-40
2022/03/20 09:23:14;;;;;;;17.13;9.77;;;;;;;18.01;40.96;102921.72;5025881;28;20140;-41
2022/03/20 09:25:41;;;;;;;18.10;9.38;;;;;;;17.98;40.88;102925.47;5024906;28;20556;-41
2022/03/20 09:28:09;;;;;;;21.02;9.52;;;;;;;17.97;40.78;102933.63;5025428;28;20152;-40
2022/03/20 09:30:38;;;;;;;20.13;10.32;;;;;;;17.95;40.92;102939.06;5026145;28;20046;-40
2022/03/20 09:33:08;;;;;;;17.80;10.13;;;;;;;17.94;40.86;102947.22;5023715;28;20045;-40
2022/03/20 09:35:35;;;;;;;18.23;9.98;;;;;;;17.92;40.93;102954.50;5024741;28;20061;-40
2022/03/20 09:38:04;;;;;;;25.33;10.85;;;;;;;17.90;40.92;102948.41;5025372;28;20107;-40
2022/03/20 09:40:35;;;;;;;21.98;11.60;;;;;;;17.88;41.23;102944.94;5023445;28;20697;-40
2022/03/20 09:43:03;;;;;;;24.80;11.55;;;;;;;17.87;40.66;102951.28;5026770;28;20049;-40
2022/03/20 09:45:30;;;;;;;19.83;10.32;;;;;;;17.84;40.95;102951.47;5027671;28;20746;-40
2022/03/20 09:47:57;;;;;;;18.17;10.05;;;;;;;17.85;40.88;102953.19;5028497;28;20053;-40
2022/03/20 09:50:24;;;;;;;20.60;10.90;;;;;;;17.85;40.84;102946.03;5028884;28;20029;-40
2022/03/20 09:52:51;;;;;;;21.52;10.35;;;;;;;17.90;41.38;102940.34;5027886;28;20448;-40
2022/03/20 09:55:18;;;;;;;22.88;11.10;;;;;;;17.93;41.98;102953.53;5028406;28;20050;-40
2022/03/20 09:57:44;;;;;;;32.58;11.98;;;;;;;17.99;42.50;102953.16;5028903;28;20141;-40
2022/03/20 10:00:12;;;;;;;28.45;13.20;;;;;;;18.05;42.65;102952.75;5026673;28;20467;-40
2022/03/20 10:02:39;;;;;;;30.67;12.63;;;;;;;18.13;42.88;102942.38;5023843;28;20413;-40
2022/03/20 10:05:08;;;;;;;37.42;14.38;;;;;;;18.20;42.71;102942.78;5027565;28;20696;-40
2022/03/20 10:07:43;;;;;;;30.17;12.90;;;;;;;18.26;42.47;102934.34;5027552;28;20069;-40
2022/03/20 10:10:17;;;;;;;28.08;12.50;;;;;;;18.35;42.50;102927.47;5027612;28;20049;-40
2022/03/20 10:12:47;;;;;;;33.50;13.23;;;;;;;18.41;42.55;102916.31;5026297;28;20042;-40
2022/03/20 10:15:28;;;;;;;26.58;11.90;;;;;;;18.48;42.60;102909.56;5026355;28;20509;-40
2022/03/20 10:18:20;;;;;;;25.63;12.27;;;;;;;18.53;42.63;102899.34;5027584;28;20049;-40
2022/03/20 10:21:00;;;;;;;29.23;12.65;;;;;;;18.58;42.27;102891.84;5027480;28;20061;-39
2022/03/20 10:23:36;;;;;;;26.85;12.20;;;;;;;18.63;41.93;102868.19;5028209;28;20152;-39
2022/03/20 10:26:06;;;;;;;25.23;12.27;;;;;;;18.71;42.22;102852.44;5028027;28;20049;-39
2022/03/20 10:28:35;;;;;;;20.63;12.43;;;;;;;18.78;42.57;102842.13;5031502;28;20105;-39
2022/03/20 10:31:04;;;;;;;25.13;12.25;;;;;;;18.85;42.22;102842.53;5027355;28;20136;-40
2022/03/20 10:33:31;;;;;;;22.02;11.63;;;;;;;18.91;41.87;102842.94;5028424;28;20488;-40
2022/03/20 10:36:19;;;;;;;25.17;12.05;;;;;;;18.96;42.32;102843.47;5025895;28;20463;-39
2022/03/20 10:38:49;;;;;;;23.13;11.45;;;;;;;19.02;42.25;102849.38;5031463;28;20041;-39
2022/03/20 10:41:34;;;;;;;28.30;11.45;;;;;;;19.04;41.80;102856.34;5027447;28;20608;-39
2022/03/20 10:44:24;;;;;;;25.85;12.32;;;;;;;19.06;42.35;102854.44;5028797;28;20060;-39
2022/03/20 10:46:59;;;;;;;18.33;11.20;;;;;;;19.05;41.79;102860.75;5027495;28;20128;-40
2022/03/20 10:49:27;;;;;;;29.02;10.57;;;;;;;19.05;41.61;102863.44;5026369;28;20128;-40
2022/03/20 10:52:22;;;;;;;36.63;11.30;;;;;;;19.03;41.63;102864.53;5026691;28;20053;-39
2022/03/20 10:54:53;;;;;;;33.05;11.73;;;;;;;19.03;41.99;102872.59;5026560;28;20053;-40
2022/03/20 10:57:21;;;;;;;36.70;11.20;;;;;;;19.01;42.06;102863.78;5025069;28;20116;-40
2022/03/20 11:00:10;;;;;;;37.45;11.63;;;;;;;18.98;41.44;102875.63;5030698;28;20053;-39
2022/03/20 11:02:40;;;;;;;28.55;11.75;;;;;;;18.96;40.77;102888.28;5025796;28;20063;-39
2022/03/20 11:05:08;;;;;;;31.13;10.57;;;;;;;18.92;40.60;102895.72;5024176;28;20249;-39
2022/03/20 11:07:36;;;;;;;26.63;10.48;;;;;;;18.89;40.48;102895.91;5023092;28;20037;-39
2022/03/20 11:10:09;;;;;;;26.67;11.95;;;;;;;18.86;40.56;102893.47;5024469;28;20386;-39
2022/03/20 11:12:37;;;;;;;25.42;10.80;;;;;;;18.83;40.13;102908.97;5028201;28;20237;-39
2022/03/20 11:15:07;;;;;;;25.40;12.05;;;;;;;18.76;40.04;102892.41;5028347;28;20184;-40
2022/03/20 11:17:44;;;;;;;26.45;11.02;;;;;;;18.72;39.64;102910.56;5025113;28;20121;-40
2022/03/20 11:20:13;;;;;;;29.45;13.60;;;;;;;18.66;39.83;102907.44;5024250;28;20139;-41
2022/03/20 11:22:50;;;;;;;25.77;12.32;;;;;;;18.54;39.03;102905.59;5022396;28;20433;-41
2022/03/20 11:25:21;;;;;;;27.65;12.43;;;;;;;18.49;39.30;102911.25;5027841;28;20085;-40
2022/03/20 11:27:59;;;;;;;24.33;12.50;;;;;;;18.43;38.93;102909.03;5027583;28;20076;-41
2022/03/20 11:30:31;;;;;;;26.05;12.25;;;;;;;18.36;39.41;102894.28;5027449;28;20051;-40
2022/03/20 11:33:02;;;;;;;23.50;11.45;;;;;;;18.33;39.54;102879.28;5027283;28;20129;-40
2022/03/20 11:35:34;;;;;;;23.35;11.95;;;;;;;18.31;40.05;102881.19;5021646;28;20045;-40
2022/03/20 11:38:17;;;;;;;22.63;11.73;;;;;;;18.30;40.20;102865.19;5022489;28;20057;-40
2022/03/20 11:41:06;;;;;;;18.77;10.63;;;;;;;18.28;40.53;102872.47;5019862;28;20041;-40
2022/03/20 11:43:35;;;;;;;20.75;11.63;;;;;;;18.25;40.99;102868.19;5022878;28;20821;-40
2022/03/20 11:46:33;;;;;;;20.25;11.70;;;;;;;18.23;40.65;102862.94;5019533;28;20132;-40
2022/03/20 11:49:16;;;;;;;21.05;11.65;;;;;;;18.23;40.35;102867.44;5023360;28;20314;-40
2022/03/20 11:51:54;;;;;;;22.52;11.32;;;;;;;18.22;40.49;102863.91;5020714;28;20092;-40
2022/03/20 11:54:27;;;;;;;22.02;11.50;;;;;;;18.22;40.66;102858.53;5022303;28;20088;-40
2022/03/20 11:56:54;;;;;;;23.40;11.40;;;;;;;18.23;40.79;102856.69;5024274;28;20084;-40